createdAt,value
2022-09-24T00:00:05.156Z,101311.69
2022-09-24T00:02:07.191Z,101311.63
2022-09-24T00:04:12.549Z,101312.47
2022-09-24T00:06:14.583Z,101306.41
2022-09-24T00:08:17.751Z,101313.28
2022-09-24T00:10:19.933Z,101314.16
2022-09-24T00:12:22.067Z,101306.34
2022-09-24T00:14:24.534Z,101319.31
2022-09-24T00:16:29.139Z,101313.25
2022-09-24T00:18:31.713Z,101311.50
2022-09-24T00:20:36.100Z,101310.66
2022-09-24T00:22:38.595Z,101313.16
2022-09-24T00:24:51.211Z,101316.53
2022-09-24T00:26:53.136Z,101318.25
2022-09-24T00:28:55.073Z,101313.06
2022-09-24T00:30:59.293Z,101316.41
2022-09-24T00:33:01.263Z,101320.63
2022-09-24T00:35:03.202Z,101318.03
2022-09-24T00:37:05.034Z,101318.88
2022-09-24T00:39:07.592Z,101315.41
2022-09-24T00:41:09.622Z,101311.06
2022-09-24T00:43:44.390Z,101310.97
2022-09-24T00:45:46.396Z,101313.53
2022-09-24T00:47:49.161Z,101316.03
2022-09-24T00:49:52.017Z,101309.16
2022-09-24T00:51:54.056Z,101305.66
2022-09-24T00:54:01.812Z,101305.66
2022-09-24T00:56:07.279Z,101305.63
2022-09-24T00:58:10.297Z,101307.31
2022-09-24T01:00:13.132Z,101306.44
2022-09-24T01:02:15.650Z,101308.97
2022-09-24T01:04:22.530Z,101308.06
2022-09-24T01:06:26.455Z,101314.19
2022-09-24T01:08:28.461Z,101302.88
2022-09-24T01:11:14.829Z,101318.34
2022-09-24T01:13:43.537Z,101310.59
2022-09-24T01:15:57.941Z,101308.84
2022-09-24T01:18:17.882Z,101309.69
2022-09-24T01:20:32.024Z,101309.63
2022-09-24T01:23:16.899Z,101305.25
2022-09-24T01:25:58.723Z,101306.06
2022-09-24T01:28:19.556Z,101301.81
2022-09-24T01:30:21.033Z,101300.06
2022-09-24T01:32:52.380Z,101298.34
2022-09-24T01:35:24.499Z,101293.16
2022-09-24T01:37:31.979Z,101287.94
2022-09-24T01:39:37.561Z,101281.94
2022-09-24T01:41:40.118Z,101286.16
2022-09-24T01:43:43.321Z,101280.97
2022-09-24T01:45:46.179Z,101280.97
2022-09-24T01:47:48.813Z,101280.13
2022-09-24T01:49:53.696Z,101286.13
2022-09-24T01:51:58.788Z,101281.84
2022-09-24T01:54:16.182Z,101283.44
2022-09-24T01:56:42.522Z,101292.09
2022-09-24T01:59:05.888Z,101286.00
2022-09-24T02:01:12.645Z,101282.53
2022-09-24T02:03:20.326Z,101292.00
2022-09-24T02:05:28.781Z,101288.59
2022-09-24T02:07:41.145Z,101289.22
2022-09-24T02:09:44.330Z,101293.66
2022-09-24T02:11:46.779Z,101297.94
2022-09-24T02:13:57.601Z,101293.53
2022-09-24T02:16:01.564Z,101297.78
2022-09-24T02:18:10.209Z,101292.56
2022-09-24T02:20:20.587Z,101290.78
2022-09-24T02:22:25.523Z,101289.97
2022-09-24T02:24:37.237Z,101290.00
2022-09-24T02:26:39.219Z,101289.22
2022-09-24T02:28:41.929Z,101283.97
2022-09-24T02:31:28.122Z,101277.16
2022-09-24T02:33:52.808Z,101285.69
2022-09-24T02:35:55.028Z,101277.03
2022-09-24T02:37:56.945Z,101273.56
2022-09-24T02:39:58.898Z,101276.97
2022-09-24T02:42:02.115Z,101278.66
2022-09-24T02:44:03.732Z,101273.50
2022-09-24T02:46:05.990Z,101284.69
2022-09-24T02:48:08.254Z,101281.28
2022-09-24T02:50:10.273Z,101276.91
2022-09-24T02:52:12.927Z,101272.66
2022-09-24T02:54:41.433Z,101274.34
2022-09-24T02:57:05.637Z,101270.06
2022-09-24T02:59:33.342Z,101269.19
2022-09-24T03:02:03.176Z,101270.06
2022-09-24T03:04:31.588Z,101271.78
2022-09-24T03:06:34.021Z,101268.31
2022-09-24T03:08:35.977Z,101266.56
2022-09-24T03:10:37.937Z,101269.13
2022-09-24T03:12:41.078Z,101264.81
2022-09-24T03:14:43.129Z,101272.59
2022-09-24T03:16:45.246Z,101258.78
2022-09-24T03:18:48.103Z,101269.13
2022-09-24T03:21:06.313Z,101269.97
2022-09-24T03:23:08.313Z,101279.41
2022-09-24T03:25:11.386Z,101269.06
2022-09-24T03:27:13.416Z,101276.84
2022-09-24T03:29:15.442Z,101262.19
2022-09-24T03:31:17.773Z,101270.78
2022-09-24T03:33:19.722Z,101275.06
2022-09-24T03:35:21.939Z,101274.19
2022-09-24T03:37:23.886Z,101276.81
2022-09-24T03:39:25.703Z,101272.44
2022-09-24T03:41:28.533Z,101273.34
2022-09-24T03:43:31.651Z,101274.22
2022-09-24T03:45:33.626Z,101275.91
2022-09-24T03:47:35.966Z,101274.16
2022-09-24T03:49:37.950Z,101274.19
2022-09-24T03:51:39.946Z,101278.47
2022-09-24T03:53:42.284Z,101279.38
2022-09-24T03:55:53.013Z,101277.66
2022-09-24T03:57:54.802Z,101279.25
2022-09-24T03:59:58.742Z,101288.84
2022-09-24T04:02:01.015Z,101291.44
2022-09-24T04:04:04.243Z,101289.72
2022-09-24T04:06:07.160Z,101295.72
2022-09-24T04:08:09.299Z,101289.63
2022-09-24T04:10:11.887Z,101289.59
2022-09-24T04:12:14.321Z,101290.47
2022-09-24T04:14:16.300Z,101299.03
2022-09-24T04:16:26.712Z,101299.88
2022-09-24T04:18:28.825Z,101297.19
2022-09-24T04:20:31.464Z,101294.59
2022-09-24T04:22:33.605Z,101298.94
2022-09-24T04:24:35.640Z,101301.47
2022-09-24T04:26:37.759Z,101300.56
2022-09-24T04:28:39.893Z,101304.00
2022-09-24T04:30:56.474Z,101300.47
2022-09-24T04:33:01.227Z,101292.69
2022-09-24T04:35:07.475Z,101293.47
2022-09-24T04:37:10.471Z,101300.41
2022-09-24T04:39:12.466Z,101289.19
2022-09-24T04:41:17.466Z,101292.56
2022-09-24T04:43:19.664Z,101290.75
2022-09-24T04:45:22.429Z,101295.97
2022-09-24T04:47:26.137Z,101301.94
2022-09-24T04:49:29.375Z,101289.88
2022-09-24T04:51:34.156Z,101294.16
2022-09-24T04:53:37.487Z,101301.00
2022-09-24T04:55:39.913Z,101308.81
2022-09-24T04:57:41.974Z,101306.16
2022-09-24T04:59:44.588Z,101313.03
2022-09-24T05:01:47.460Z,101301.00
2022-09-24T05:03:50.002Z,101304.38
2022-09-24T05:05:52.298Z,101301.69
2022-09-24T05:07:56.952Z,101300.81
2022-09-24T05:09:59.097Z,101310.25
2022-09-24T05:12:02.184Z,101306.78
2022-09-24T05:14:04.166Z,101305.84
2022-09-24T05:16:06.247Z,101309.25
2022-09-24T05:18:12.784Z,101302.25
2022-09-24T05:20:17.063Z,101304.81
2022-09-24T05:22:19.406Z,101306.47
2022-09-24T05:24:21.411Z,101315.03
2022-09-24T05:26:42.102Z,101310.72
2022-09-24T05:28:44.181Z,101317.59
2022-09-24T05:30:51.708Z,101326.22
2022-09-24T05:32:53.563Z,101315.88
2022-09-24T05:34:55.519Z,101322.66
2022-09-24T05:36:57.514Z,101330.41
2022-09-24T05:38:59.584Z,101334.66
2022-09-24T05:41:06.386Z,101338.00
2022-09-24T05:43:08.627Z,101339.69
2022-09-24T05:45:10.723Z,101331.94
2022-09-24T05:47:14.062Z,101347.38
2022-09-24T05:49:16.792Z,101336.13
2022-09-24T05:51:19.224Z,101340.50
2022-09-24T05:53:22.855Z,101340.34
2022-09-24T05:55:28.748Z,101349.06
2022-09-24T05:57:34.484Z,101337.84
2022-09-24T05:59:36.854Z,101337.78
2022-09-24T06:01:41.581Z,101342.13
2022-09-24T06:03:43.655Z,101347.28
2022-09-24T06:05:49.055Z,101351.59
2022-09-24T06:07:51.708Z,101350.72
2022-09-24T06:09:53.743Z,101354.19
2022-09-24T06:11:56.469Z,101351.59
2022-09-24T06:14:01.085Z,101358.50
2022-09-24T06:16:05.871Z,101361.03
2022-09-24T06:18:18.828Z,101364.47
2022-09-24T06:20:21.476Z,101368.78
2022-09-24T06:22:28.187Z,101372.25
2022-09-24T06:24:30.644Z,101367.00
2022-09-24T06:26:33.391Z,101369.63
2022-09-24T06:28:35.464Z,101373.97
2022-09-24T06:30:41.027Z,101379.13
2022-09-24T06:32:43.018Z,101377.34
2022-09-24T06:34:45.564Z,101382.56
2022-09-24T06:36:47.499Z,101378.25
2022-09-24T06:38:53.300Z,101381.72
2022-09-24T06:41:00.353Z,101382.50
2022-09-24T06:43:02.495Z,101385.16
2022-09-24T06:45:05.106Z,101386.94
2022-09-24T06:47:07.239Z,101386.94
2022-09-24T06:49:09.410Z,101400.75
2022-09-24T06:51:11.388Z,101403.31
2022-09-24T06:53:13.401Z,101402.44
2022-09-24T06:55:16.174Z,101405.88
2022-09-24T06:57:18.462Z,101406.75
2022-09-24T06:59:20.843Z,101400.66
2022-09-24T07:01:23.186Z,101406.72
2022-09-24T07:03:26.857Z,101411.94
2022-09-24T07:05:29.007Z,101403.41
2022-09-24T07:07:33.046Z,101411.03
2022-09-24T07:09:36.534Z,101414.56
2022-09-24T07:11:39.388Z,101418.09
2022-09-24T07:13:41.937Z,101413.72
2022-09-24T07:15:44.727Z,101418.00
2022-09-24T07:17:46.843Z,101421.47
2022-09-24T07:19:48.946Z,101418.97
2022-09-24T07:21:58.223Z,101426.72
2022-09-24T07:24:00.395Z,101425.78
2022-09-24T07:26:02.399Z,101418.91
2022-09-24T07:28:06.435Z,101427.56
2022-09-24T07:30:09.535Z,101421.56
2022-09-24T07:32:11.264Z,101428.56
2022-09-24T07:34:14.190Z,101430.31
2022-09-24T07:36:15.755Z,101421.81
2022-09-24T07:38:17.388Z,101422.59
2022-09-24T07:40:20.310Z,101428.78
2022-09-24T07:42:23.522Z,101421.91
2022-09-24T07:44:25.150Z,101431.34
2022-09-24T07:46:27.537Z,101425.38
2022-09-24T07:48:29.231Z,101436.66
2022-09-24T07:50:33.965Z,101432.44
2022-09-24T07:52:35.847Z,101435.16
2022-09-24T07:54:38.432Z,101431.75
2022-09-24T07:56:40.171Z,101438.69
2022-09-24T07:58:41.817Z,101439.69
2022-09-24T08:00:53.788Z,101434.50
2022-09-24T08:02:56.633Z,101438.09
2022-09-24T08:04:58.750Z,101448.63
2022-09-24T08:07:01.311Z,101442.53
2022-09-24T08:09:04.226Z,101448.75
2022-09-24T08:11:08.506Z,101458.31
2022-09-24T08:13:10.175Z,101455.81
2022-09-24T08:15:11.905Z,101450.72
2022-09-24T08:17:13.729Z,101462.06
2022-09-24T08:19:17.016Z,101466.44
2022-09-24T08:21:18.731Z,101465.66
2022-09-24T08:23:23.553Z,101470.03
2022-09-24T08:25:25.173Z,101459.84
2022-09-24T08:27:28.063Z,101460.75
2022-09-24T08:29:29.682Z,101465.91
2022-09-24T08:31:31.475Z,101469.50
2022-09-24T08:33:33.859Z,101468.75
2022-09-24T08:35:36.713Z,101472.31
2022-09-24T08:37:39.127Z,101477.56
2022-09-24T08:39:40.785Z,101472.47
2022-09-24T08:42:00.396Z,101471.59
2022-09-24T08:44:15.096Z,101475.25
2022-09-24T08:46:44.126Z,101484.03
2022-09-24T08:51:21.134Z,101474.78
2022-09-24T08:53:45.250Z,101479.22
2022-09-24T08:56:05.047Z,101481.81
2022-09-24T08:58:32.008Z,101480.22
2022-09-24T09:00:58.269Z,101480.34
2022-09-24T09:03:12.504Z,101482.22
2022-09-24T09:05:34.170Z,101484.81
2022-09-24T09:07:49.424Z,101488.34
2022-09-24T09:10:04.256Z,101483.19
2022-09-24T09:12:28.764Z,101489.25
2022-09-24T09:15:00.209Z,101480.66
2022-09-24T09:17:37.756Z,101477.31
2022-09-24T09:19:40.904Z,101477.38
2022-09-24T09:21:46.865Z,101480.06
2022-09-24T09:23:51.393Z,101476.63
2022-09-24T09:25:57.274Z,101470.66
2022-09-24T09:28:03.236Z,101475.78
2022-09-24T09:30:11.788Z,101481.03
2022-09-24T09:32:21.236Z,101475.13
2022-09-24T09:34:50.675Z,101467.34
2022-09-24T09:37:19.885Z,101475.31
2022-09-24T09:39:50.907Z,101476.31
2022-09-24T09:41:59.875Z,101480.69
2022-09-24T09:44:14.196Z,101483.31
2022-09-24T09:46:25.601Z,101479.09
2022-09-24T09:48:39.576Z,101491.25
2022-09-24T09:51:04.587Z,101480.16
2022-09-24T09:53:06.661Z,101475.88
2022-09-24T09:55:19.855Z,101479.38
2022-09-24T09:57:26.451Z,101476.88
2022-09-24T09:59:30.033Z,101468.28
2022-09-24T10:01:34.630Z,101473.56
2022-09-24T10:03:46.463Z,101479.69
2022-09-24T10:06:01.096Z,101470.22
2022-09-24T10:08:02.758Z,101467.66
2022-09-24T10:10:18.302Z,101473.78
2022-09-24T10:12:22.432Z,101472.13
2022-09-24T10:14:24.135Z,101470.41
2022-09-24T10:16:33.194Z,101473.94
2022-09-24T10:18:42.449Z,101466.19
2022-09-24T10:20:52.039Z,101470.56
2022-09-24T10:23:19.625Z,101468.84
2022-09-24T10:25:27.122Z,101466.25
2022-09-24T10:27:37.476Z,101471.47
2022-09-24T10:29:58.489Z,101470.59
2022-09-24T10:32:04.084Z,101474.09
2022-09-24T10:34:29.286Z,101468.91
2022-09-24T10:36:35.142Z,101467.16
2022-09-24T10:38:38.025Z,101466.31
2022-09-24T10:40:50.785Z,101459.34
2022-09-24T10:43:01.507Z,101460.19
2022-09-24T10:45:04.732Z,101461.94
2022-09-24T10:47:26.985Z,101468.00
2022-09-24T10:49:43.528Z,101464.50
2022-09-24T10:52:09.912Z,101465.38
2022-09-24T10:54:57.987Z,101460.13
2022-09-24T10:57:10.972Z,101461.91
2022-09-24T10:59:34.304Z,101470.56
2022-09-24T11:01:47.514Z,101459.25
2022-09-24T11:03:53.247Z,101461.84
2022-09-24T11:06:13.937Z,101459.22
2022-09-24T11:08:29.191Z,101453.13
2022-09-24T11:11:13.423Z,101458.41
2022-09-24T11:13:21.708Z,101467.09
2022-09-24T11:15:26.521Z,101462.75
2022-09-24T11:17:33.502Z,101467.97
2022-09-24T11:20:07.679Z,101461.84
2022-09-24T11:22:20.884Z,101456.63
2022-09-24T11:24:43.850Z,101455.75
2022-09-24T11:27:19.214Z,101456.63
2022-09-24T11:29:23.953Z,101455.72
2022-09-24T11:31:28.568Z,101457.44
2022-09-24T11:33:52.342Z,101453.91
2022-09-24T11:36:12.779Z,101450.41
2022-09-24T11:38:23.937Z,101449.47
2022-09-24T11:40:53.498Z,101445.09
2022-09-24T11:43:07.373Z,101445.88
2022-09-24T11:45:59.452Z,101455.41
2022-09-24T11:48:22.798Z,101442.31
2022-09-24T11:50:33.076Z,101449.28
2022-09-24T11:52:56.103Z,101441.50
2022-09-24T11:55:00.790Z,101452.00
2022-09-24T11:57:25.763Z,101445.84
2022-09-24T11:59:50.615Z,101445.78
2022-09-24T12:02:15.136Z,101444.06
2022-09-24T12:04:44.400Z,101439.59
2022-09-24T12:07:13.247Z,101447.34
2022-09-24T12:09:21.424Z,101432.41
2022-09-24T12:11:48.735Z,101430.53
2022-09-24T12:14:02.720Z,101429.63
2022-09-24T12:16:07.515Z,101432.31
2022-09-24T12:18:17.943Z,101434.03
2022-09-24T12:20:59.442Z,101432.34
2022-09-24T12:23:13.379Z,101439.44
2022-09-24T12:25:17.059Z,101433.41
2022-09-24T12:27:33.106Z,101441.38
2022-09-24T12:30:19.457Z,101445.78
2022-09-24T12:32:56.761Z,101449.38
2022-09-24T12:35:05.672Z,101447.69
2022-09-24T12:37:14.381Z,101443.25
2022-09-24T12:39:20.661Z,101446.69
2022-09-24T12:42:00.146Z,101436.28
2022-09-24T12:44:10.909Z,101439.69
2022-09-24T12:46:16.758Z,101444.03
2022-09-24T12:48:23.326Z,101444.00
2022-09-24T12:50:27.635Z,101444.06
2022-09-24T12:52:55.579Z,101444.06
2022-09-24T12:55:01.054Z,101438.00
2022-09-24T12:57:12.850Z,101443.19
2022-09-24T12:59:28.490Z,101448.41
2022-09-24T13:01:32.443Z,101446.59
2022-09-24T13:03:44.601Z,101440.59
2022-09-24T13:05:48.690Z,101440.50
2022-09-24T13:08:01.006Z,101442.19
2022-09-24T13:10:17.788Z,101432.47
2022-09-24T13:12:33.212Z,101440.25
2022-09-24T13:14:35.484Z,101440.16
2022-09-24T13:16:43.425Z,101434.91
2022-09-24T13:18:58.008Z,101433.91
2022-09-24T13:21:09.404Z,101431.19
2022-09-24T13:23:14.775Z,101433.72
2022-09-24T13:25:23.238Z,101436.25
2022-09-24T13:27:30.886Z,101430.84
2022-09-24T13:29:38.448Z,101427.22
2022-09-24T13:31:48.980Z,101428.84
2022-09-24T13:34:18.290Z,101420.84
2022-09-24T13:36:42.739Z,101432.88
2022-09-24T13:38:50.113Z,101435.44
2022-09-24T13:41:04.551Z,101429.22
2022-09-24T13:43:25.739Z,101420.41
2022-09-24T13:45:28.184Z,101425.69
2022-09-24T13:47:42.731Z,101427.50
2022-09-24T13:49:49.713Z,101425.66
2022-09-24T13:52:06.722Z,101421.28
2022-09-24T13:54:14.485Z,101425.66
2022-09-24T13:56:19.512Z,101416.84
2022-09-24T13:58:30.783Z,101415.84
2022-09-24T14:00:52.951Z,101433.06
2022-09-24T14:02:57.604Z,101418.09
2022-09-24T14:05:01.505Z,101416.28
2022-09-24T14:07:03.361Z,101413.78
2022-09-24T14:09:26.415Z,101428.88
2022-09-24T14:11:28.262Z,101427.25
2022-09-24T14:13:29.924Z,101434.44
2022-09-24T14:15:31.658Z,101439.03
2022-09-24T14:17:33.448Z,101439.31
2022-09-24T14:19:36.215Z,101441.22
2022-09-24T14:21:43.995Z,101441.50
2022-09-24T14:23:51.859Z,101442.59
2022-09-24T14:25:54.618Z,101445.25
2022-09-24T14:28:00.203Z,101443.69
2022-09-24T14:30:05.287Z,101440.34
2022-09-24T14:32:08.271Z,101450.81
2022-09-24T14:34:27.306Z,101444.00
2022-09-24T14:36:29.418Z,101446.66
2022-09-24T14:38:36.769Z,101444.09
2022-09-24T14:40:55.645Z,101445.00
2022-09-24T14:43:02.834Z,101439.84
2022-09-24T14:45:08.019Z,101443.34
2022-09-24T14:47:25.467Z,101434.63
2022-09-24T14:49:31.238Z,101430.13
2022-09-24T14:51:33.153Z,101431.72
2022-09-24T14:53:36.764Z,101433.22
2022-09-24T14:55:45.459Z,101429.63
2022-09-24T14:57:51.769Z,101433.97
2022-09-24T14:59:55.601Z,101435.72
2022-09-24T15:02:29.540Z,101429.78
2022-09-24T15:04:31.357Z,101429.09
2022-09-24T15:06:36.999Z,101424.69
2022-09-24T15:08:38.693Z,101429.09
2022-09-24T15:10:56.986Z,101431.75
2022-09-24T15:12:58.579Z,101425.66
2022-09-24T15:15:27.647Z,101425.66
2022-09-24T15:17:32.419Z,101426.56
2022-09-24T15:19:34.229Z,101427.44
2022-09-24T15:21:35.898Z,101435.34
2022-09-24T15:23:37.624Z,101434.44
2022-09-24T15:25:43.510Z,101428.34
2022-09-24T15:27:45.474Z,101426.63
2022-09-24T15:29:47.178Z,101431.84
2022-09-24T15:31:48.897Z,101434.47
2022-09-24T15:33:50.800Z,101432.78
2022-09-24T15:35:52.616Z,101436.28
2022-09-24T15:37:54.266Z,101436.25
2022-09-24T15:40:04.930Z,101443.28
2022-09-24T15:42:08.241Z,101440.69
2022-09-24T15:44:19.980Z,101438.13
2022-09-24T15:46:21.788Z,101445.06
2022-09-24T15:48:23.482Z,101446.00
2022-09-24T15:50:26.002Z,101450.44
2022-09-24T15:52:31.721Z,101450.41
2022-09-24T15:54:33.495Z,101455.66
2022-09-24T15:56:35.902Z,101462.66
2022-09-24T15:58:38.072Z,101461.78
2022-09-24T16:00:44.084Z,101468.78
2022-09-24T16:02:49.996Z,101472.25
2022-09-24T16:04:52.095Z,101470.53
2022-09-24T16:06:53.727Z,101465.34
2022-09-24T16:08:55.316Z,101473.13
2022-09-24T16:10:57.216Z,101480.97
2022-09-24T16:12:58.805Z,101481.88
2022-09-24T16:15:00.804Z,101482.75
2022-09-24T16:17:02.591Z,101483.63
2022-09-24T16:19:04.214Z,101484.50
2022-09-24T16:21:07.913Z,101481.91
2022-09-24T16:23:14.515Z,101485.38
2022-09-24T16:25:16.256Z,101484.53
2022-09-24T16:27:17.888Z,101481.94
2022-09-24T16:29:19.686Z,101481.94
2022-09-24T16:31:21.426Z,101484.53
2022-09-24T16:33:23.541Z,101497.59
2022-09-24T16:35:25.239Z,101494.09
2022-09-24T16:37:26.854Z,101493.22
2022-09-24T16:39:28.444Z,101496.72
2022-09-24T16:41:34.373Z,101492.38
2022-09-24T16:43:36.099Z,101496.72
2022-09-24T16:45:37.731Z,101499.31
2022-09-24T16:47:39.414Z,101501.06
2022-09-24T16:49:56.802Z,101497.56
2022-09-24T16:52:25.982Z,101508.00
2022-09-24T16:54:33.853Z,101506.28
2022-09-24T16:56:46.338Z,101511.47
2022-09-24T16:59:01.710Z,101508.88
2022-09-24T17:01:15.020Z,101515.81
2022-09-24T17:03:31.155Z,101519.28
2022-09-24T17:05:46.455Z,101526.22
2022-09-24T17:07:51.486Z,101522.78
2022-09-24T17:10:24.982Z,101524.50
2022-09-24T17:12:36.775Z,101530.59
2022-09-24T17:14:38.974Z,101541.00
2022-09-24T17:16:41.843Z,101542.72
2022-09-24T17:18:43.673Z,101546.22
2022-09-24T17:20:49.460Z,101540.97
2022-09-24T17:22:51.319Z,101540.97
2022-09-24T17:24:52.954Z,101539.19
2022-09-24T17:26:55.190Z,101540.94
2022-09-24T17:28:56.864Z,101540.94
2022-09-24T17:30:58.737Z,101550.50
2022-09-24T17:33:00.363Z,101553.94
2022-09-24T17:35:02.231Z,101553.06
2022-09-24T17:37:05.174Z,101543.47
2022-09-24T17:39:07.260Z,101548.72
2022-09-24T17:41:12.192Z,101557.38
2022-09-24T17:43:13.965Z,101556.50
2022-09-24T17:45:15.880Z,101562.59
2022-09-24T17:47:17.783Z,101566.94
2022-09-24T17:49:20.629Z,101575.59
2022-09-24T17:51:33.731Z,101574.75
2022-09-24T17:53:37.928Z,101582.50
2022-09-24T17:55:48.278Z,101579.03
2022-09-24T17:57:50.143Z,101583.38
2022-09-24T17:59:52.055Z,101579.91
2022-09-24T18:01:54.300Z,101579.03
2022-09-24T18:03:58.382Z,101579.91
2022-09-24T18:06:05.212Z,101591.19
2022-09-24T18:08:07.695Z,101598.94
2022-09-24T18:10:09.724Z,101596.34
2022-09-24T18:12:17.090Z,101599.81
2022-09-24T18:14:23.155Z,101605.03
2022-09-24T18:16:28.401Z,101606.75
2022-09-24T18:18:30.400Z,101609.38
2022-09-24T18:20:32.348Z,101616.25
2022-09-24T18:22:33.999Z,101621.47
2022-09-24T18:24:35.745Z,101622.34
2022-09-24T18:26:40.206Z,101624.06
2022-09-24T18:28:48.183Z,101629.25
2022-09-24T18:31:03.444Z,101628.41
2022-09-24T18:33:05.194Z,101636.22
2022-09-24T18:35:10.456Z,101633.50
2022-09-24T18:37:12.941Z,101634.34
2022-09-24T18:39:22.019Z,101636.13
2022-09-24T18:41:28.381Z,101639.56
2022-09-24T18:43:31.224Z,101645.59
2022-09-24T18:45:34.776Z,101644.63
2022-09-24T18:47:38.334Z,101643.75
2022-09-24T18:49:43.619Z,101645.44
2022-09-24T18:51:46.673Z,101642.84
2022-09-24T18:53:56.536Z,101665.38
2022-09-24T18:56:03.008Z,101660.09
2022-09-24T18:58:06.919Z,101666.16
2022-09-24T19:00:29.477Z,101664.38
2022-09-24T19:02:31.562Z,101666.09
2022-09-24T19:04:33.708Z,101672.16
2022-09-24T19:06:37.647Z,101680.81
2022-09-24T19:08:40.051Z,101673.84
2022-09-24T19:11:00.108Z,101673.00
2022-09-24T19:13:08.301Z,101680.72
2022-09-24T19:15:10.011Z,101684.25
2022-09-24T19:17:11.623Z,101682.44
2022-09-24T19:19:13.365Z,101686.81
2022-09-24T19:21:15.813Z,101679.88
2022-09-24T19:23:17.518Z,101694.56
2022-09-24T19:25:19.132Z,101690.22
2022-09-24T19:27:20.733Z,101694.47
2022-09-24T19:29:22.664Z,101691.00
2022-09-24T19:31:26.868Z,101701.31
2022-09-24T19:33:28.802Z,101693.59
2022-09-24T19:35:30.434Z,101693.59
2022-09-24T19:37:32.452Z,101708.22
2022-09-24T19:39:34.111Z,101702.16
2022-09-24T19:41:35.913Z,101714.28
2022-09-24T19:43:37.832Z,101709.00
2022-09-24T19:45:39.611Z,101712.56
2022-09-24T19:47:41.237Z,101719.47
2022-09-24T19:49:42.894Z,101722.88
2022-09-24T19:51:44.546Z,101722.81
2022-09-24T19:53:51.701Z,101716.78
2022-09-24T19:56:18.430Z,101723.69
2022-09-24T19:58:20.176Z,101720.09
2022-09-24T20:00:23.687Z,101721.00
2022-09-24T20:02:25.552Z,101729.63
2022-09-24T20:04:27.284Z,101728.75
2022-09-24T20:06:31.358Z,101730.34
2022-09-24T20:08:36.845Z,101731.28
2022-09-24T20:10:52.696Z,101727.88
2022-09-24T20:12:54.646Z,101733.03
2022-09-24T20:14:56.427Z,101733.78
2022-09-24T20:16:58.114Z,101736.41
2022-09-24T20:19:01.478Z,101737.16
2022-09-24T20:21:05.300Z,101747.66
2022-09-24T20:23:08.376Z,101748.50
2022-09-24T20:25:11.699Z,101750.22
2022-09-24T20:27:31.618Z,101757.03
2022-09-24T20:29:34.280Z,101749.25
2022-09-24T20:31:37.361Z,101753.53
2022-09-24T20:33:41.236Z,101747.38
2022-09-24T20:35:42.960Z,101756.06
2022-09-24T20:37:44.828Z,101746.53
2022-09-24T20:39:46.583Z,101744.78
2022-09-24T20:41:52.852Z,101741.28
2022-09-24T20:43:55.625Z,101742.91
2022-09-24T20:45:57.327Z,101736.84
2022-09-24T20:47:59.087Z,101747.28
2022-09-24T20:50:00.725Z,101737.72
2022-09-24T20:52:03.729Z,101745.41
2022-09-24T20:54:05.730Z,101749.66
2022-09-24T20:56:09.326Z,101752.25
2022-09-24T20:58:11.068Z,101749.69
2022-09-24T21:00:15.019Z,101747.91
2022-09-24T21:02:16.761Z,101752.25
2022-09-24T21:04:20.236Z,101753.03
2022-09-24T21:06:23.479Z,101752.22
2022-09-24T21:08:25.165Z,101752.13
2022-09-24T21:10:31.969Z,101751.28
2022-09-24T21:13:05.331Z,101759.06
2022-09-24T21:15:30.253Z,101758.16
2022-09-24T21:17:32.517Z,101761.63
2022-09-24T21:19:35.720Z,101761.44
2022-09-24T21:21:39.197Z,101761.50
2022-09-24T21:23:41.360Z,101764.94
2022-09-24T21:25:54.305Z,101766.50
2022-09-24T21:27:56.804Z,101762.16
2022-09-24T21:29:58.437Z,101763.06
2022-09-24T21:32:07.711Z,101758.69
2022-09-24T21:34:11.448Z,101760.41
2022-09-24T21:36:15.304Z,101760.41
2022-09-24T21:38:19.835Z,101765.50
2022-09-24T21:40:21.796Z,101754.94
2022-09-24T21:42:24.177Z,101759.41
2022-09-24T21:44:26.269Z,101768.94
2022-09-24T21:46:31.463Z,101764.56
2022-09-24T21:48:34.455Z,101761.03
2022-09-24T21:50:49.452Z,101771.47
2022-09-24T21:52:52.024Z,101763.75
2022-09-24T21:54:53.690Z,101763.59
2022-09-24T21:56:55.389Z,101769.84
2022-09-24T21:58:58.396Z,101765.47
2022-09-24T22:01:04.990Z,101771.47
2022-09-24T22:03:08.385Z,101768.88
2022-09-24T22:05:10.127Z,101771.38
2022-09-24T22:07:11.890Z,101768.75
2022-09-24T22:09:13.505Z,101767.94
2022-09-24T22:11:15.619Z,101764.41
2022-09-24T22:13:17.687Z,101772.34
2022-09-24T22:15:21.403Z,101768.00
2022-09-24T22:17:23.034Z,101766.34
2022-09-24T22:19:24.911Z,101766.22
2022-09-24T22:21:27.548Z,101767.00
2022-09-24T22:23:29.255Z,101767.00
2022-09-24T22:25:31.431Z,101774.81
2022-09-24T22:27:33.164Z,101767.06
2022-09-24T22:29:34.937Z,101766.19
2022-09-24T22:31:36.564Z,101763.50
2022-09-24T22:33:57.078Z,101764.44
2022-09-24T22:35:58.759Z,101768.72
2022-09-24T22:38:00.438Z,101771.16
2022-09-24T22:40:04.581Z,101773.75
2022-09-24T22:42:07.077Z,101783.19
2022-09-24T22:44:09.115Z,101785.88
2022-09-24T22:46:12.916Z,101781.47
2022-09-24T22:48:14.627Z,101791.00
2022-09-24T22:50:16.386Z,101788.44
2022-09-24T22:52:18.154Z,101793.50
2022-09-24T22:54:19.936Z,101793.38
2022-09-24T22:56:24.653Z,101794.25
2022-09-24T22:58:28.076Z,101791.53
2022-09-24T23:00:29.705Z,101793.19
2022-09-24T23:02:31.349Z,101796.81
2022-09-24T23:04:33.246Z,101790.84
2022-09-24T23:06:35.260Z,101794.28
2022-09-24T23:08:37.710Z,101793.38
2022-09-24T23:10:39.373Z,101783.06
2022-09-24T23:12:41.100Z,101789.94
2022-09-24T23:14:46.532Z,101789.97
2022-09-24T23:16:48.661Z,101786.31
2022-09-24T23:18:53.823Z,101793.22
2022-09-24T23:20:55.448Z,101788.06
2022-09-24T23:22:58.379Z,101783.72
2022-09-24T23:25:02.517Z,101800.09
2022-09-24T23:27:04.935Z,101788.88
2022-09-24T23:29:08.978Z,101789.75
2022-09-24T23:31:15.459Z,101797.44
2022-09-24T23:33:17.328Z,101793.03
2022-09-24T23:35:19.103Z,101793.84
2022-09-24T23:37:21.755Z,101792.03
2022-09-24T23:39:24.348Z,101789.44
2022-09-24T23:41:29.173Z,101794.63
2022-09-24T23:43:31.981Z,101792.13
2022-09-24T23:45:35.358Z,101789.44
2022-09-24T23:47:40.078Z,101785.09
2022-09-24T23:49:43.066Z,101792.88
2022-09-24T23:51:47.065Z,101785.03
2022-09-24T23:53:52.618Z,101785.00
2022-09-24T23:55:56.711Z,101785.84
2022-09-24T23:58:00.037Z,101788.44
